sensor_id;sensor_type;location;lat;lon;timestamp;P1;durP1;ratioP1;P2;durP2;ratioP2
71360;SDS011;59166;48.908;1.870;2023-12-14T00:04:21;5.53;;;1.50;;
71360;SDS011;59166;48.908;1.870;2023-12-14T00:12:12;8.25;;;2.10;;
71360;SDS011;59166;48.908;1.870;2023-12-14T00:17:13;6.77;;;1.60;;
71360;SDS011;59166;48.908;1.870;2023-12-14T00:22:14;5.68;;;1.40;;
71360;SDS011;59166;48.908;1.870;2023-12-14T00:27:15;7.40;;;1.20;;
71360;SDS011;59166;48.908;1.870;2023-12-14T00:37:54;6.90;;;1.57;;
71360;SDS011;59166;48.908;1.870;2023-12-14T00:42:56;6.75;;;1.38;;
71360;SDS011;59166;48.908;1.870;2023-12-14T00:47:57;7.30;;;1.40;;
71360;SDS011;59166;48.908;1.870;2023-12-14T00:52:58;3.85;;;1.13;;
71360;SDS011;59166;48.908;1.870;2023-12-14T00:58:00;7.50;;;1.57;;
71360;SDS011;59166;48.908;1.870;2023-12-14T01:03:01;9.98;;;1.58;;
71360;SDS011;59166;48.908;1.870;2023-12-14T01:08:02;6.53;;;1.40;;
71360;SDS011;59166;48.908;1.870;2023-12-14T01:13:04;5.47;;;1.10;;
71360;SDS011;59166;48.908;1.870;2023-12-14T01:18:05;7.80;;;1.92;;
71360;SDS011;59166;48.908;1.870;2023-12-14T01:23:06;5.23;;;1.23;;
71360;SDS011;59166;48.908;1.870;2023-12-14T01:28:08;7.07;;;1.30;;
71360;SDS011;59166;48.908;1.870;2023-12-14T01:33:09;5.55;;;1.38;;
71360;SDS011;59166;48.908;1.870;2023-12-14T01:38:10;10.30;;;1.40;;
71360;SDS011;59166;48.908;1.870;2023-12-14T01:43:12;4.45;;;1.10;;
71360;SDS011;59166;48.908;1.870;2023-12-14T01:48:13;5.03;;;0.97;;
71360;SDS011;59166;48.908;1.870;2023-12-14T01:53:14;2.10;;;0.60;;
71360;SDS011;59166;48.908;1.870;2023-12-14T01:58:16;6.93;;;1.20;;
71360;SDS011;59166;48.908;1.870;2023-12-14T02:03:17;5.13;;;1.17;;
71360;SDS011;59166;48.908;1.870;2023-12-14T02:08:18;2.60;;;0.80;;
71360;SDS011;59166;48.908;1.870;2023-12-14T02:13:20;6.37;;;1.63;;
71360;SDS011;59166;48.908;1.870;2023-12-14T02:18:20;6.60;;;0.90;;
71360;SDS011;59166;48.908;1.870;2023-12-14T02:23:23;4.10;;;0.97;;
71360;SDS011;59166;48.908;1.870;2023-12-14T02:28:24;4.43;;;1.00;;
71360;SDS011;59166;48.908;1.870;2023-12-14T02:33:25;3.43;;;0.90;;
71360;SDS011;59166;48.908;1.870;2023-12-14T02:38:27;4.10;;;0.90;;
71360;SDS011;59166;48.908;1.870;2023-12-14T02:43:28;3.67;;;0.82;;
71360;SDS011;59166;48.908;1.870;2023-12-14T02:48:29;3.20;;;0.80;;
71360;SDS011;59166;48.908;1.870;2023-12-14T02:53:31;5.07;;;0.85;;
71360;SDS011;59166;48.908;1.870;2023-12-14T02:58:32;4.20;;;1.00;;
71360;SDS011;59166;48.908;1.870;2023-12-14T03:03:33;2.23;;;0.80;;
71360;SDS011;59166;48.908;1.870;2023-12-14T03:08:35;2.77;;;0.80;;
71360;SDS011;59166;48.908;1.870;2023-12-14T03:13:36;3.28;;;0.80;;
71360;SDS011;59166;48.908;1.870;2023-12-14T03:18:37;3.70;;;1.10;;
71360;SDS011;59166;48.908;1.870;2023-12-14T03:23:39;4.07;;;0.80;;
71360;SDS011;59166;48.908;1.870;2023-12-14T03:28:40;5.18;;;0.98;;
71360;SDS011;59166;48.908;1.870;2023-12-14T03:33:41;3.43;;;0.80;;
71360;SDS011;59166;48.908;1.870;2023-12-14T03:38:44;5.53;;;1.05;;
71360;SDS011;59166;48.908;1.870;2023-12-14T03:43:45;3.40;;;0.98;;
71360;SDS011;59166;48.908;1.870;2023-12-14T03:48:46;3.37;;;1.00;;
71360;SDS011;59166;48.908;1.870;2023-12-14T03:53:48;4.38;;;1.00;;
71360;SDS011;59166;48.908;1.870;2023-12-14T03:58:49;3.87;;;1.00;;
71360;SDS011;59166;48.908;1.870;2023-12-14T04:03:50;3.67;;;0.90;;
71360;SDS011;59166;48.908;1.870;2023-12-14T04:08:52;4.82;;;0.90;;
71360;SDS011;59166;48.908;1.870;2023-12-14T04:13:53;2.93;;;0.90;;
71360;SDS011;59166;48.908;1.870;2023-12-14T04:18:54;3.28;;;1.05;;
71360;SDS011;59166;48.908;1.870;2023-12-14T04:23:56;3.87;;;0.87;;
71360;SDS011;59166;48.908;1.870;2023-12-14T04:28:57;5.97;;;1.27;;
71360;SDS011;59166;48.908;1.870;2023-12-14T04:33:57;2.37;;;0.90;;
71360;SDS011;59166;48.908;1.870;2023-12-14T04:39:00;7.65;;;1.02;;
71360;SDS011;59166;48.908;1.870;2023-12-14T04:44:00;6.38;;;1.30;;
71360;SDS011;59166;48.908;1.870;2023-12-14T04:49:01;5.60;;;1.07;;
71360;SDS011;59166;48.908;1.870;2023-12-14T04:54:04;7.88;;;1.02;;
71360;SDS011;59166;48.908;1.870;2023-12-14T04:59:05;4.83;;;0.97;;
71360;SDS011;59166;48.908;1.870;2023-12-14T05:04:05;4.33;;;1.00;;
71360;SDS011;59166;48.908;1.870;2023-12-14T05:09:08;4.95;;;1.00;;
71360;SDS011;59166;48.908;1.870;2023-12-14T05:14:09;5.90;;;1.27;;
71360;SDS011;59166;48.908;1.870;2023-12-14T05:19:09;4.00;;;1.10;;
71360;SDS011;59166;48.908;1.870;2023-12-14T05:24:12;6.13;;;1.20;;
71360;SDS011;59166;48.908;1.870;2023-12-14T05:29:13;4.90;;;0.88;;
71360;SDS011;59166;48.908;1.870;2023-12-14T05:34:13;7.30;;;1.17;;
71360;SDS011;59166;48.908;1.870;2023-12-14T05:39:16;2.70;;;0.80;;
71360;SDS011;59166;48.908;1.870;2023-12-14T05:44:16;3.40;;;1.10;;
71360;SDS011;59166;48.908;1.870;2023-12-14T05:49:17;5.70;;;1.50;;
71360;SDS011;59166;48.908;1.870;2023-12-14T05:54:19;6.97;;;1.20;;
71360;SDS011;59166;48.908;1.870;2023-12-14T05:59:20;7.38;;;1.33;;
71360;SDS011;59166;48.908;1.870;2023-12-14T06:04:21;4.80;;;1.27;;
71360;SDS011;59166;48.908;1.870;2023-12-14T06:09:23;4.00;;;1.10;;
71360;SDS011;59166;48.908;1.870;2023-12-14T06:14:24;6.85;;;1.63;;
71360;SDS011;59166;48.908;1.870;2023-12-14T06:19:25;5.97;;;1.60;;
71360;SDS011;59166;48.908;1.870;2023-12-14T06:24:27;2.28;;;0.90;;
71360;SDS011;59166;48.908;1.870;2023-12-14T06:29:28;5.70;;;1.40;;
71360;SDS011;59166;48.908;1.870;2023-12-14T06:34:29;7.95;;;1.42;;
71360;SDS011;59166;48.908;1.870;2023-12-14T06:39:32;6.15;;;1.27;;
71360;SDS011;59166;48.908;1.870;2023-12-14T06:44:36;8.67;;;1.27;;
71360;SDS011;59166;48.908;1.870;2023-12-14T06:49:40;6.80;;;1.23;;
71360;SDS011;59166;48.908;1.870;2023-12-14T06:54:42;9.73;;;2.63;;
71360;SDS011;59166;48.908;1.870;2023-12-14T06:59:43;11.03;;;2.90;;
71360;SDS011;59166;48.908;1.870;2023-12-14T07:04:44;10.27;;;2.03;;
71360;SDS011;59166;48.908;1.870;2023-12-14T07:09:47;4.20;;;1.40;;
71360;SDS011;59166;48.908;1.870;2023-12-14T07:14:48;9.90;;;2.40;;
71360;SDS011;59166;48.908;1.870;2023-12-14T07:19:50;9.02;;;1.80;;
71360;SDS011;59166;48.908;1.870;2023-12-14T07:24:53;7.30;;;1.70;;
71360;SDS011;59166;48.908;1.870;2023-12-14T07:29:54;6.60;;;1.70;;
71360;SDS011;59166;48.908;1.870;2023-12-14T07:34:55;7.55;;;1.98;;
71360;SDS011;59166;48.908;1.870;2023-12-14T07:39:57;8.53;;;2.23;;
71360;SDS011;59166;48.908;1.870;2023-12-14T07:44:58;11.00;;;2.70;;
71360;SDS011;59166;48.908;1.870;2023-12-14T07:49:59;9.15;;;2.47;;
71360;SDS011;59166;48.908;1.870;2023-12-14T07:55:01;9.33;;;2.60;;
71360;SDS011;59166;48.908;1.870;2023-12-14T08:00:02;10.52;;;1.88;;
71360;SDS011;59166;48.908;1.870;2023-12-14T08:05:04;9.93;;;2.47;;
71360;SDS011;59166;48.908;1.870;2023-12-14T08:10:07;7.63;;;2.43;;
71360;SDS011;59166;48.908;1.870;2023-12-14T08:15:09;8.80;;;2.92;;
71360;SDS011;59166;48.908;1.870;2023-12-14T08:20:10;7.45;;;2.28;;
71360;SDS011;59166;48.908;1.870;2023-12-14T08:25:13;9.40;;;2.07;;
71360;SDS011;59166;48.908;1.870;2023-12-14T08:30:14;22.45;;;2.35;;
71360;SDS011;59166;48.908;1.870;2023-12-14T08:35:15;8.63;;;1.77;;
71360;SDS011;59166;48.908;1.870;2023-12-14T08:40:17;6.67;;;2.10;;
71360;SDS011;59166;48.908;1.870;2023-12-14T08:45:18;8.98;;;2.00;;
71360;SDS011;59166;48.908;1.870;2023-12-14T08:50:19;9.80;;;2.00;;
71360;SDS011;59166;48.908;1.870;2023-12-14T08:55:21;9.15;;;2.58;;
71360;SDS011;59166;48.908;1.870;2023-12-14T09:00:22;11.97;;;2.60;;
71360;SDS011;59166;48.908;1.870;2023-12-14T09:05:23;8.52;;;2.20;;
71360;SDS011;59166;48.908;1.870;2023-12-14T09:10:26;7.15;;;2.05;;
71360;SDS011;59166;48.908;1.870;2023-12-14T09:15:26;9.13;;;2.30;;
71360;SDS011;59166;48.908;1.870;2023-12-14T09:20:27;9.80;;;2.57;;
71360;SDS011;59166;48.908;1.870;2023-12-14T09:25:29;10.63;;;2.47;;
71360;SDS011;59166;48.908;1.870;2023-12-14T09:30:30;7.57;;;2.40;;
71360;SDS011;59166;48.908;1.870;2023-12-14T09:35:31;8.88;;;2.63;;
71360;SDS011;59166;48.908;1.870;2023-12-14T09:40:33;8.83;;;2.77;;
71360;SDS011;59166;48.908;1.870;2023-12-14T09:45:34;8.60;;;2.90;;
71360;SDS011;59166;48.908;1.870;2023-12-14T09:50:36;11.50;;;2.70;;
71360;SDS011;59166;48.908;1.870;2023-12-14T09:55:40;9.13;;;2.90;;
71360;SDS011;59166;48.908;1.870;2023-12-14T10:00:41;10.27;;;2.80;;
71360;SDS011;59166;48.908;1.870;2023-12-14T10:05:42;12.97;;;3.27;;
71360;SDS011;59166;48.908;1.870;2023-12-14T10:10:45;11.27;;;3.53;;
71360;SDS011;59166;48.908;1.870;2023-12-14T10:15:48;11.20;;;3.22;;
71360;SDS011;59166;48.908;1.870;2023-12-14T10:20:49;11.73;;;3.17;;
71360;SDS011;59166;48.908;1.870;2023-12-14T10:25:51;10.10;;;3.00;;
71360;SDS011;59166;48.908;1.870;2023-12-14T10:30:53;10.95;;;2.67;;
71360;SDS011;59166;48.908;1.870;2023-12-14T10:35:54;11.90;;;2.80;;
71360;SDS011;59166;48.908;1.870;2023-12-14T10:40:57;10.57;;;2.70;;
71360;SDS011;59166;48.908;1.870;2023-12-14T10:45:59;8.00;;;2.08;;
71360;SDS011;59166;48.908;1.870;2023-12-14T10:51:01;10.07;;;2.53;;
71360;SDS011;59166;48.908;1.870;2023-12-14T10:56:04;9.45;;;2.30;;
71360;SDS011;59166;48.908;1.870;2023-12-14T11:01:06;8.23;;;2.13;;
71360;SDS011;59166;48.908;1.870;2023-12-14T11:06:15;8.77;;;2.47;;
71360;SDS011;59166;48.908;1.870;2023-12-14T11:11:22;8.60;;;2.20;;
71360;SDS011;59166;48.908;1.870;2023-12-14T11:16:27;6.47;;;1.92;;
71360;SDS011;59166;48.908;1.870;2023-12-14T11:21:28;10.00;;;3.33;;
71360;SDS011;59166;48.908;1.870;2023-12-14T11:26:31;7.43;;;2.13;;
71360;SDS011;59166;48.908;1.870;2023-12-14T11:31:31;7.50;;;2.00;;
71360;SDS011;59166;48.908;1.870;2023-12-14T11:36:32;8.93;;;1.80;;
71360;SDS011;59166;48.908;1.870;2023-12-14T11:41:35;6.72;;;1.90;;
71360;SDS011;59166;48.908;1.870;2023-12-14T11:46:36;9.07;;;2.13;;
71360;SDS011;59166;48.908;1.870;2023-12-14T11:51:36;9.20;;;1.80;;
71360;SDS011;59166;48.908;1.870;2023-12-14T11:56:39;6.27;;;1.73;;
71360;SDS011;59166;48.908;1.870;2023-12-14T12:01:54;9.00;;;1.70;;
71360;SDS011;59166;48.908;1.870;2023-12-14T12:07:00;7.85;;;1.80;;
71360;SDS011;59166;48.908;1.870;2023-12-14T12:12:04;9.30;;;1.80;;
71360;SDS011;59166;48.908;1.870;2023-12-14T12:17:06;6.72;;;1.88;;
71360;SDS011;59166;48.908;1.870;2023-12-14T12:22:07;7.57;;;1.55;;
71360;SDS011;59166;48.908;1.870;2023-12-14T12:27:09;7.63;;;1.67;;
71360;SDS011;59166;48.908;1.870;2023-12-14T12:32:10;7.25;;;1.73;;
71360;SDS011;59166;48.908;1.870;2023-12-14T12:37:12;6.93;;;1.70;;
71360;SDS011;59166;48.908;1.870;2023-12-14T12:42:50;7.03;;;1.35;;
71360;SDS011;59166;48.908;1.870;2023-12-14T12:48:09;8.40;;;1.60;;
71360;SDS011;59166;48.908;1.870;2023-12-14T12:53:19;5.43;;;1.40;;
71360;SDS011;59166;48.908;1.870;2023-12-14T13:04:14;6.20;;;1.38;;
71360;SDS011;59166;48.908;1.870;2023-12-14T13:09:24;6.65;;;1.50;;
71360;SDS011;59166;48.908;1.870;2023-12-14T13:14:46;6.07;;;1.47;;
71360;SDS011;59166;48.908;1.870;2023-12-14T13:19:56;7.28;;;1.40;;
71360;SDS011;59166;48.908;1.870;2023-12-14T13:25:25;6.63;;;1.58;;
71360;SDS011;59166;48.908;1.870;2023-12-14T13:30:43;7.50;;;1.50;;
71360;SDS011;59166;48.908;1.870;2023-12-14T13:35:51;6.63;;;1.60;;
71360;SDS011;59166;48.908;1.870;2023-12-14T13:40:56;7.65;;;1.70;;
71360;SDS011;59166;48.908;1.870;2023-12-14T13:45:57;7.83;;;2.00;;
71360;SDS011;59166;48.908;1.870;2023-12-14T13:56:57;7.30;;;1.83;;
71360;SDS011;59166;48.908;1.870;2023-12-14T14:02:20;8.95;;;1.90;;
71360;SDS011;59166;48.908;1.870;2023-12-14T14:07:35;7.47;;;1.30;;
71360;SDS011;59166;48.908;1.870;2023-12-14T14:12:38;5.95;;;1.60;;
71360;SDS011;59166;48.908;1.870;2023-12-14T14:17:42;6.47;;;1.85;;
71360;SDS011;59166;48.908;1.870;2023-12-14T14:22:55;8.63;;;1.80;;
71360;SDS011;59166;48.908;1.870;2023-12-14T14:28:10;6.35;;;1.70;;
71360;SDS011;59166;48.908;1.870;2023-12-14T14:33:19;6.25;;;1.70;;
71360;SDS011;59166;48.908;1.870;2023-12-14T14:38:25;8.77;;;2.10;;
71360;SDS011;59166;48.908;1.870;2023-12-14T14:49:16;6.80;;;1.75;;
71360;SDS011;59166;48.908;1.870;2023-12-14T14:59:57;7.50;;;2.30;;
71360;SDS011;59166;48.908;1.870;2023-12-14T15:05:32;7.55;;;2.00;;
71360;SDS011;59166;48.908;1.870;2023-12-14T15:10:54;8.63;;;2.30;;
71360;SDS011;59166;48.908;1.870;2023-12-14T15:27:05;8.70;;;2.90;;
71360;SDS011;59166;48.908;1.870;2023-12-14T15:32:28;10.03;;;2.70;;
71360;SDS011;59166;48.908;1.870;2023-12-14T15:43:16;7.85;;;2.40;;
71360;SDS011;59166;48.908;1.870;2023-12-14T15:48:45;8.73;;;2.00;;
71360;SDS011;59166;48.908;1.870;2023-12-14T15:54:00;6.37;;;1.60;;
71360;SDS011;59166;48.908;1.870;2023-12-14T15:59:27;7.25;;;2.10;;
71360;SDS011;59166;48.908;1.870;2023-12-14T16:04:34;8.88;;;2.70;;
71360;SDS011;59166;48.908;1.870;2023-12-14T16:09:46;10.80;;;4.27;;
71360;SDS011;59166;48.908;1.870;2023-12-14T16:20:26;12.07;;;5.53;;
71360;SDS011;59166;48.908;1.870;2023-12-14T16:25:55;13.40;;;5.17;;
71360;SDS011;59166;48.908;1.870;2023-12-14T16:31:19;10.83;;;3.90;;
71360;SDS011;59166;48.908;1.870;2023-12-14T16:36:50;10.90;;;2.35;;
71360;SDS011;59166;48.908;1.870;2023-12-14T16:41:57;7.07;;;2.00;;
71360;SDS011;59166;48.908;1.870;2023-12-14T16:47:13;7.33;;;2.27;;
71360;SDS011;59166;48.908;1.870;2023-12-14T16:52:15;5.82;;;2.10;;
71360;SDS011;59166;48.908;1.870;2023-12-14T16:57:18;8.77;;;2.08;;
71360;SDS011;59166;48.908;1.870;2023-12-14T17:02:19;7.33;;;2.00;;
71360;SDS011;59166;48.908;1.870;2023-12-14T17:07:20;10.48;;;3.20;;
71360;SDS011;59166;48.908;1.870;2023-12-14T17:12:22;11.45;;;3.60;;
71360;SDS011;59166;48.908;1.870;2023-12-14T17:17:23;8.90;;;3.10;;
71360;SDS011;59166;48.908;1.870;2023-12-14T17:22:24;10.75;;;2.83;;
71360;SDS011;59166;48.908;1.870;2023-12-14T17:27:31;12.00;;;2.60;;
71360;SDS011;59166;48.908;1.870;2023-12-14T17:32:32;9.52;;;2.10;;
71360;SDS011;59166;48.908;1.870;2023-12-14T17:37:33;7.82;;;2.22;;
71360;SDS011;59166;48.908;1.870;2023-12-14T17:42:35;9.73;;;2.37;;
71360;SDS011;59166;48.908;1.870;2023-12-14T17:47:39;10.07;;;2.47;;
71360;SDS011;59166;48.908;1.870;2023-12-14T17:52:40;8.18;;;2.55;;
71360;SDS011;59166;48.908;1.870;2023-12-14T17:57:42;12.30;;;3.23;;
71360;SDS011;59166;48.908;1.870;2023-12-14T18:02:43;8.90;;;2.65;;
71360;SDS011;59166;48.908;1.870;2023-12-14T18:07:44;9.25;;;2.35;;
71360;SDS011;59166;48.908;1.870;2023-12-14T18:12:52;8.30;;;2.13;;
71360;SDS011;59166;48.908;1.870;2023-12-14T18:17:53;10.05;;;2.40;;
71360;SDS011;59166;48.908;1.870;2023-12-14T18:22:54;7.72;;;2.35;;
71360;SDS011;59166;48.908;1.870;2023-12-14T18:27:57;9.57;;;2.50;;
71360;SDS011;59166;48.908;1.870;2023-12-14T18:32:58;9.13;;;2.20;;
71360;SDS011;59166;48.908;1.870;2023-12-14T18:37:59;9.23;;;2.20;;
71360;SDS011;59166;48.908;1.870;2023-12-14T18:43:01;8.83;;;2.27;;
71360;SDS011;59166;48.908;1.870;2023-12-14T18:48:02;7.55;;;2.10;;
71360;SDS011;59166;48.908;1.870;2023-12-14T18:53:03;9.10;;;2.20;;
71360;SDS011;59166;48.908;1.870;2023-12-14T18:58:07;8.23;;;2.30;;
71360;SDS011;59166;48.908;1.870;2023-12-14T19:03:11;7.50;;;2.50;;
71360;SDS011;59166;48.908;1.870;2023-12-14T19:08:14;7.05;;;2.42;;
71360;SDS011;59166;48.908;1.870;2023-12-14T19:24:54;9.02;;;2.33;;
71360;SDS011;59166;48.908;1.870;2023-12-14T19:28:59;7.80;;;2.20;;
71360;SDS011;59166;48.908;1.870;2023-12-14T19:34:00;8.18;;;2.30;;
71360;SDS011;59166;48.908;1.870;2023-12-14T19:39:01;8.40;;;2.55;;
71360;SDS011;59166;48.908;1.870;2023-12-14T19:44:04;9.00;;;2.70;;
71360;SDS011;59166;48.908;1.870;2023-12-14T19:49:06;10.18;;;2.90;;
71360;SDS011;59166;48.908;1.870;2023-12-14T19:54:09;9.05;;;2.70;;
71360;SDS011;59166;48.908;1.870;2023-12-14T19:59:21;8.20;;;2.57;;
71360;SDS011;59166;48.908;1.870;2023-12-14T20:04:22;7.88;;;2.53;;
71360;SDS011;59166;48.908;1.870;2023-12-14T20:09:22;6.88;;;2.20;;
71360;SDS011;59166;48.908;1.870;2023-12-14T20:14:25;9.90;;;2.70;;
71360;SDS011;59166;48.908;1.870;2023-12-14T20:19:26;9.00;;;2.75;;
71360;SDS011;59166;48.908;1.870;2023-12-14T20:24:27;8.53;;;2.90;;
71360;SDS011;59166;48.908;1.870;2023-12-14T20:29:29;8.40;;;2.60;;
71360;SDS011;59166;48.908;1.870;2023-12-14T20:34:30;10.55;;;3.63;;
71360;SDS011;59166;48.908;1.870;2023-12-14T20:39:31;10.47;;;2.93;;
71360;SDS011;59166;48.908;1.870;2023-12-14T20:44:34;8.68;;;2.80;;
71360;SDS011;59166;48.908;1.870;2023-12-14T20:49:37;7.80;;;2.67;;
71360;SDS011;59166;48.908;1.870;2023-12-14T20:54:38;10.03;;;2.90;;
71360;SDS011;59166;48.908;1.870;2023-12-14T20:59:41;7.97;;;2.80;;
71360;SDS011;59166;48.908;1.870;2023-12-14T21:04:42;10.00;;;3.00;;
71360;SDS011;59166;48.908;1.870;2023-12-14T21:09:45;9.27;;;2.80;;
71360;SDS011;59166;48.908;1.870;2023-12-14T21:14:48;9.32;;;3.28;;
71360;SDS011;59166;48.908;1.870;2023-12-14T21:19:49;9.38;;;3.20;;
71360;SDS011;59166;48.908;1.870;2023-12-14T21:24:52;8.87;;;3.47;;
71360;SDS011;59166;48.908;1.870;2023-12-14T21:29:54;11.15;;;3.25;;
71360;SDS011;59166;48.908;1.870;2023-12-14T21:34:55;7.97;;;3.50;;
71360;SDS011;59166;48.908;1.870;2023-12-14T21:39:56;10.43;;;3.63;;
71360;SDS011;59166;48.908;1.870;2023-12-14T21:44:58;11.20;;;3.57;;
71360;SDS011;59166;48.908;1.870;2023-12-14T21:49:59;9.80;;;3.30;;
71360;SDS011;59166;48.908;1.870;2023-12-14T21:55:00;9.38;;;3.38;;
71360;SDS011;59166;48.908;1.870;2023-12-14T22:00:03;11.10;;;3.23;;
71360;SDS011;59166;48.908;1.870;2023-12-14T22:05:05;10.07;;;3.35;;
71360;SDS011;59166;48.908;1.870;2023-12-14T22:10:06;10.10;;;3.40;;
71360;SDS011;59166;48.908;1.870;2023-12-14T22:15:10;9.30;;;3.13;;
71360;SDS011;59166;48.908;1.870;2023-12-14T22:20:11;9.75;;;3.40;;
71360;SDS011;59166;48.908;1.870;2023-12-14T22:25:11;10.18;;;3.38;;
71360;SDS011;59166;48.908;1.870;2023-12-14T22:30:14;9.27;;;3.60;;
71360;SDS011;59166;48.908;1.870;2023-12-14T22:35:15;9.27;;;3.30;;
71360;SDS011;59166;48.908;1.870;2023-12-14T22:40:16;7.90;;;3.07;;
71360;SDS011;59166;48.908;1.870;2023-12-14T22:45:19;8.87;;;2.97;;
71360;SDS011;59166;48.908;1.870;2023-12-14T22:50:20;7.82;;;2.90;;
71360;SDS011;59166;48.908;1.870;2023-12-14T22:55:21;7.90;;;3.13;;
71360;SDS011;59166;48.908;1.870;2023-12-14T23:00:24;8.00;;;3.00;;
71360;SDS011;59166;48.908;1.870;2023-12-14T23:05:28;7.97;;;2.88;;
71360;SDS011;59166;48.908;1.870;2023-12-14T23:10:29;8.75;;;3.00;;
71360;SDS011;59166;48.908;1.870;2023-12-14T23:15:31;8.43;;;2.83;;
71360;SDS011;59166;48.908;1.870;2023-12-14T23:20:32;7.47;;;3.13;;
71360;SDS011;59166;48.908;1.870;2023-12-14T23:25:33;8.45;;;3.10;;
71360;SDS011;59166;48.908;1.870;2023-12-14T23:30:36;8.00;;;3.07;;
71360;SDS011;59166;48.908;1.870;2023-12-14T23:35:37;9.85;;;3.22;;
71360;SDS011;59166;48.908;1.870;2023-12-14T23:40:38;8.52;;;3.28;;
71360;SDS011;59166;48.908;1.870;2023-12-14T23:45:41;9.57;;;3.57;;
71360;SDS011;59166;48.908;1.870;2023-12-14T23:50:42;9.25;;;3.45;;
71360;SDS011;59166;48.908;1.870;2023-12-14T23:55:43;8.77;;;3.53;;
